createdAt,value
2018-11-25T00:00:38.449Z,3.60
2018-11-25T00:02:42.307Z,3.60
2018-11-25T00:04:45.810Z,3.70
2018-11-25T00:06:49.326Z,3.70
2018-11-25T00:08:52.965Z,3.60
2018-11-25T00:10:56.133Z,3.60
2018-11-25T00:12:59.522Z,3.60
2018-11-25T00:15:03.031Z,3.60
2018-11-25T00:17:06.737Z,3.60
2018-11-25T00:19:10.217Z,3.60
2018-11-25T00:21:13.488Z,3.60
2018-11-25T00:23:16.996Z,3.60
2018-11-25T00:25:20.684Z,3.60
2018-11-25T00:27:24.717Z,3.70
2018-11-25T00:29:28.320Z,3.80
2018-11-25T00:31:31.722Z,3.80
2018-11-25T00:33:35.614Z,3.70
2018-11-25T00:35:40.061Z,3.70
2018-11-25T00:37:48.475Z,3.70
2018-11-25T00:39:46.974Z,3.80
2018-11-25T00:41:50.493Z,3.80
2018-11-25T00:43:54.066Z,3.80
2018-11-25T00:45:57.894Z,3.80
2018-11-25T00:48:01.127Z,3.80
2018-11-25T00:52:25.829Z,3.80
2018-11-25T00:54:29.717Z,3.80
2018-11-25T00:56:33.193Z,3.80
2018-11-25T00:58:37.002Z,3.80
2018-11-25T01:00:40.555Z,3.80
2018-11-25T01:02:44.298Z,3.80
2018-11-25T01:04:47.533Z,3.80
2018-11-25T01:06:51.371Z,3.80
2018-11-25T01:08:54.600Z,3.80
2018-11-25T01:10:58.103Z,3.70
2018-11-25T01:13:01.810Z,3.70
2018-11-25T01:15:07.030Z,3.70
2018-11-25T01:17:10.792Z,3.70
2018-11-25T01:19:14.383Z,3.80
2018-11-25T01:21:18.194Z,3.70
2018-11-25T01:23:21.888Z,3.70
2018-11-25T01:25:25.433Z,3.70
2018-11-25T01:27:28.909Z,3.70
2018-11-25T01:29:32.510Z,3.70
2018-11-25T01:31:36.166Z,3.80
2018-11-25T01:33:39.677Z,3.70
2018-11-25T01:35:43.402Z,3.70
2018-11-25T01:37:46.958Z,3.80
2018-11-25T01:39:50.156Z,3.80
2018-11-25T01:41:54.043Z,3.70
2018-11-25T01:43:57.532Z,3.70
2018-11-25T01:46:01.346Z,3.70
2018-11-25T01:48:05.341Z,3.70
2018-11-25T01:50:11.002Z,3.70
2018-11-25T01:52:14.497Z,3.80
2018-11-25T01:54:18.175Z,3.80
2018-11-25T01:56:21.630Z,3.80
2018-11-25T01:58:24.837Z,3.80
2018-11-25T02:00:28.697Z,3.80
2018-11-25T02:02:31.895Z,3.80
2018-11-25T02:04:35.566Z,3.80
2018-11-25T02:06:39.059Z,3.80
2018-11-25T02:08:42.543Z,3.90
2018-11-25T02:10:46.059Z,3.90
2018-11-25T02:12:50.033Z,3.90
2018-11-25T02:14:53.834Z,3.90
2018-11-25T02:16:57.921Z,3.90
2018-11-25T02:19:01.538Z,3.90
2018-11-25T02:21:05.013Z,3.90
2018-11-25T02:23:08.590Z,3.90
2018-11-25T02:25:12.557Z,3.90
2018-11-25T02:27:16.121Z,3.90
2018-11-25T02:29:19.581Z,3.80
2018-11-25T02:31:23.095Z,3.90
2018-11-25T02:33:26.537Z,3.90
2018-11-25T02:35:30.311Z,3.90
2018-11-25T02:37:33.777Z,3.90
2018-11-25T02:39:36.988Z,3.90
2018-11-25T02:41:40.796Z,3.90
2018-11-25T02:43:44.399Z,3.90
2018-11-25T02:45:47.867Z,3.80
2018-11-25T02:47:51.176Z,3.90
2018-11-25T02:49:54.376Z,3.90
2018-11-25T02:51:57.936Z,3.90
2018-11-25T02:54:01.316Z,4.00
2018-11-25T02:56:05.221Z,4.00
2018-11-25T02:58:08.778Z,3.90
2018-11-25T03:00:12.322Z,4.00
2018-11-25T03:02:15.831Z,4.00
2018-11-25T03:04:19.338Z,4.00
2018-11-25T03:06:23.857Z,3.90
2018-11-25T03:08:26.390Z,3.90
2018-11-25T03:10:29.970Z,3.80
2018-11-25T03:12:33.153Z,3.80
2018-11-25T03:14:36.830Z,3.80
2018-11-25T03:16:40.326Z,3.80
2018-11-25T03:18:43.806Z,3.80
2018-11-25T03:20:47.517Z,3.80
2018-11-25T03:22:51.635Z,3.80
2018-11-25T03:24:55.199Z,3.70
2018-11-25T03:26:58.792Z,3.80
2018-11-25T03:29:02.278Z,3.80
2018-11-25T03:31:06.543Z,3.80
2018-11-25T03:33:09.794Z,3.70
2018-11-25T03:35:13.828Z,3.80
2018-11-25T03:37:17.395Z,3.80
2018-11-25T03:39:21.217Z,3.80
2018-11-25T03:41:24.709Z,3.80
2018-11-25T03:43:27.901Z,3.80
2018-11-25T03:45:31.179Z,3.80
2018-11-25T03:47:34.816Z,3.80
2018-11-25T03:49:38.002Z,3.70
2018-11-25T03:51:41.220Z,3.70
2018-11-25T03:53:45.367Z,3.70
2018-11-25T03:55:48.845Z,3.70
2018-11-25T03:57:52.351Z,3.80
2018-11-25T03:59:55.538Z,3.80
2018-11-25T04:01:59.025Z,3.70
2018-11-25T04:04:03.205Z,3.80
2018-11-25T04:06:06.673Z,3.70
2018-11-25T04:08:10.216Z,3.70
2018-11-25T04:10:16.886Z,3.70
2018-11-25T04:12:20.460Z,3.80
2018-11-25T04:14:23.912Z,3.80
2018-11-25T04:16:27.150Z,3.70
2018-11-25T04:18:30.652Z,3.80
2018-11-25T04:20:34.163Z,3.70
2018-11-25T04:22:38.376Z,3.70
2018-11-25T04:24:41.853Z,3.80
2018-11-25T04:26:45.322Z,3.80
2018-11-25T04:28:48.522Z,3.90
2018-11-25T04:30:52.029Z,3.90
2018-11-25T04:32:55.502Z,3.80
2018-11-25T04:34:58.677Z,3.80
2018-11-25T04:37:01.883Z,3.80
2018-11-25T04:39:08.618Z,3.90
2018-11-25T04:41:12.409Z,3.90
2018-11-25T04:43:16.388Z,3.90
2018-11-25T04:45:20.531Z,3.90
2018-11-25T04:47:24.314Z,4.00
2018-11-25T04:49:28.012Z,3.90
2018-11-25T04:51:31.265Z,3.90
2018-11-25T04:53:34.467Z,3.80
2018-11-25T04:55:38.181Z,3.70
2018-11-25T04:57:41.641Z,3.70
2018-11-25T04:59:45.309Z,3.80
2018-11-25T05:01:49.208Z,3.70
2018-11-25T05:03:53.187Z,3.70
2018-11-25T05:05:56.653Z,3.70
2018-11-25T05:08:00.323Z,3.70
2018-11-25T05:10:04.813Z,3.70
2018-11-25T05:12:08.603Z,3.70
2018-11-25T05:14:12.142Z,3.70
2018-11-25T05:16:15.794Z,3.80
2018-11-25T05:18:19.249Z,3.80
2018-11-25T05:20:23.385Z,3.80
2018-11-25T05:22:26.905Z,3.70
2018-11-25T05:24:30.392Z,3.70
2018-11-25T05:26:34.221Z,3.80
2018-11-25T05:28:37.409Z,3.80
2018-11-25T05:30:40.639Z,3.70
2018-11-25T05:32:44.266Z,3.70
2018-11-25T05:34:47.706Z,3.70
2018-11-25T05:36:51.867Z,3.70
2018-11-25T05:38:55.552Z,3.70
2018-11-25T05:40:59.014Z,3.70
2018-11-25T05:43:02.203Z,3.80
2018-11-25T05:45:08.360Z,3.80
2018-11-25T05:47:11.888Z,3.80
2018-11-25T05:49:15.373Z,3.80
2018-11-25T05:51:18.813Z,3.80
2018-11-25T05:53:22.388Z,3.80
2018-11-25T05:55:26.293Z,3.80
2018-11-25T05:57:29.647Z,3.80
2018-11-25T05:59:34.383Z,3.80
2018-11-25T06:01:37.086Z,3.80
2018-11-25T06:03:40.578Z,3.80
2018-11-25T06:05:44.013Z,3.80
2018-11-25T06:07:47.517Z,3.80
2018-11-25T06:09:50.893Z,3.80
2018-11-25T06:11:54.082Z,3.80
2018-11-25T06:13:57.282Z,3.80
2018-11-25T06:16:00.757Z,3.80
2018-11-25T06:18:04.566Z,3.80
2018-11-25T06:20:10.460Z,3.80
2018-11-25T06:22:13.954Z,3.80
2018-11-25T06:24:17.579Z,3.80
2018-11-25T06:26:21.517Z,3.80
2018-11-25T06:28:24.771Z,3.80
2018-11-25T06:30:28.264Z,3.80
2018-11-25T06:32:31.719Z,3.90
2018-11-25T06:34:34.912Z,3.80
2018-11-25T06:36:38.725Z,3.90
2018-11-25T06:38:42.277Z,3.90
2018-11-25T06:40:45.840Z,3.80
2018-11-25T06:42:49.493Z,3.90
2018-11-25T06:44:53.309Z,3.90
2018-11-25T06:46:56.793Z,3.90
2018-11-25T06:49:00.595Z,4.00
2018-11-25T06:51:04.475Z,3.90
2018-11-25T06:53:08.276Z,3.90
2018-11-25T06:55:12.429Z,3.90
2018-11-25T06:57:16.090Z,3.90
2018-11-25T06:59:19.649Z,3.90
2018-11-25T07:01:23.152Z,4.00
2018-11-25T07:03:26.625Z,4.00
2018-11-25T07:05:29.837Z,4.00
2018-11-25T07:07:33.297Z,3.90
2018-11-25T07:09:36.753Z,4.00
2018-11-25T07:11:39.994Z,4.00
2018-11-25T07:13:43.184Z,4.00
2018-11-25T07:15:46.891Z,4.00
2018-11-25T07:17:50.409Z,3.90
2018-11-25T07:19:53.886Z,4.00
2018-11-25T07:21:57.357Z,4.00
2018-11-25T07:24:00.846Z,4.00
2018-11-25T07:26:04.325Z,4.00
2018-11-25T07:28:17.884Z,4.00
2018-11-25T07:30:15.684Z,4.00
2018-11-25T07:32:19.486Z,4.00
2018-11-25T07:34:22.975Z,3.90
2018-11-25T07:36:26.546Z,4.00
2018-11-25T07:38:29.817Z,3.90
2018-11-25T07:40:33.169Z,3.90
2018-11-25T07:42:36.897Z,3.90
2018-11-25T07:44:40.110Z,3.90
2018-11-25T07:46:43.348Z,3.90
2018-11-25T07:48:47.112Z,3.90
2018-11-25T07:50:50.890Z,3.90
2018-11-25T07:52:54.637Z,3.90
2018-11-25T07:54:58.185Z,3.90
2018-11-25T07:57:01.391Z,3.90
2018-11-25T07:59:04.689Z,3.90
2018-11-25T08:01:08.191Z,3.90
2018-11-25T08:03:11.897Z,3.90
2018-11-25T08:05:21.967Z,3.90
2018-11-25T08:07:25.656Z,4.00
2018-11-25T08:09:29.323Z,4.00
2018-11-25T08:11:32.792Z,4.00
2018-11-25T08:13:36.139Z,4.10
2018-11-25T08:15:39.634Z,4.00
2018-11-25T08:17:43.670Z,4.10
2018-11-25T08:19:47.382Z,4.10
2018-11-25T08:21:50.890Z,4.20
2018-11-25T08:23:54.606Z,4.10
2018-11-25T08:25:58.449Z,4.00
2018-11-25T08:28:01.913Z,4.10
2018-11-25T08:30:08.625Z,4.10
2018-11-25T08:32:12.412Z,4.10
2018-11-25T08:34:15.614Z,4.20
2018-11-25T08:36:19.524Z,4.20
2018-11-25T08:38:23.117Z,4.30
2018-11-25T08:40:26.601Z,4.20
2018-11-25T08:42:29.857Z,4.20
2018-11-25T08:44:33.885Z,4.30
2018-11-25T08:46:37.225Z,4.20
2018-11-25T08:48:40.739Z,4.30
2018-11-25T08:50:44.205Z,4.30
2018-11-25T08:52:49.551Z,4.30
2018-11-25T08:54:53.163Z,4.30
2018-11-25T08:56:56.910Z,4.40
2018-11-25T08:59:01.369Z,4.40
2018-11-25T09:01:06.325Z,4.40
2018-11-25T09:03:09.823Z,4.50
2018-11-25T09:05:14.616Z,4.50
2018-11-25T09:07:17.989Z,4.50
2018-11-25T09:09:21.523Z,4.50
2018-11-25T09:11:25.091Z,4.60
2018-11-25T09:13:28.342Z,4.60
2018-11-25T09:15:32.290Z,4.60
2018-11-25T09:17:36.113Z,4.60
2018-11-25T09:19:39.302Z,4.70
2018-11-25T09:21:43.145Z,4.80
2018-11-25T09:23:46.637Z,4.80
2018-11-25T09:25:49.856Z,4.80
2018-11-25T09:27:53.813Z,4.90
2018-11-25T09:29:56.999Z,4.80
2018-11-25T09:32:00.459Z,4.80
2018-11-25T09:34:04.356Z,4.80
2018-11-25T09:36:07.862Z,4.90
2018-11-25T09:38:11.345Z,4.90
2018-11-25T09:40:17.468Z,4.90
2018-11-25T09:42:20.936Z,4.90
2018-11-25T09:44:24.399Z,4.90
2018-11-25T09:46:27.636Z,5.00
2018-11-25T09:48:30.859Z,5.00
2018-11-25T09:50:34.665Z,5.00
2018-11-25T09:52:38.482Z,5.10
2018-11-25T09:54:42.228Z,5.10
2018-11-25T09:56:46.733Z,5.20
2018-11-25T09:58:50.312Z,5.20
2018-11-25T10:00:53.818Z,5.30
2018-11-25T10:02:57.320Z,5.30
2018-11-25T10:05:01.039Z,5.20
2018-11-25T10:07:04.659Z,5.30
2018-11-25T10:09:09.205Z,5.20
2018-11-25T10:11:12.728Z,5.30
2018-11-25T10:13:16.218Z,5.30
2018-11-25T10:15:24.145Z,5.30
2018-11-25T10:17:27.661Z,5.30
2018-11-25T10:19:31.171Z,5.40
2018-11-25T10:21:34.381Z,5.40
2018-11-25T10:23:37.889Z,5.50
2018-11-25T10:25:41.356Z,5.50
2018-11-25T10:27:44.620Z,5.50
2018-11-25T10:29:48.172Z,5.50
2018-11-25T10:31:51.660Z,5.60
2018-11-25T10:33:55.342Z,5.50
2018-11-25T10:35:59.803Z,5.40
2018-11-25T10:38:03.479Z,5.40
2018-11-25T10:40:12.687Z,5.50
2018-11-25T10:42:16.216Z,5.50
2018-11-25T10:44:19.426Z,5.50
2018-11-25T10:46:23.031Z,5.50
2018-11-25T10:48:26.547Z,5.60
2018-11-25T10:50:29.883Z,5.60
2018-11-25T10:52:33.692Z,5.60
2018-11-25T10:54:36.895Z,5.70
2018-11-25T10:56:40.188Z,5.70
2018-11-25T10:58:43.668Z,5.70
2018-11-25T11:00:52.541Z,5.70
2018-11-25T11:03:02.745Z,5.70
2018-11-25T11:05:07.427Z,5.70
2018-11-25T11:07:16.697Z,5.70
2018-11-25T11:09:20.525Z,5.70
2018-11-25T11:11:24.622Z,5.70
2018-11-25T11:13:28.368Z,5.70
2018-11-25T11:15:31.884Z,5.70
2018-11-25T11:17:35.221Z,5.70
2018-11-25T11:19:39.028Z,5.70
2018-11-25T11:21:42.266Z,5.70
2018-11-25T11:23:45.793Z,5.80
2018-11-25T11:25:49.265Z,5.80
2018-11-25T11:27:52.484Z,5.70
2018-11-25T11:29:55.970Z,5.70
2018-11-25T11:31:59.455Z,5.80
2018-11-25T11:34:03.289Z,5.70
2018-11-25T11:36:06.809Z,5.70
2018-11-25T11:38:10.017Z,5.70
2018-11-25T11:40:14.247Z,5.60
2018-11-25T11:42:17.723Z,5.60
2018-11-25T11:44:21.175Z,5.60
2018-11-25T11:46:24.417Z,5.70
2018-11-25T11:48:28.150Z,5.70
2018-11-25T11:50:31.631Z,5.60
2018-11-25T11:52:35.296Z,5.60
2018-11-25T11:54:38.853Z,5.60
2018-11-25T11:56:42.047Z,5.60
2018-11-25T11:58:45.502Z,5.60
2018-11-25T12:00:48.998Z,5.60
2018-11-25T12:02:52.659Z,5.60
2018-11-25T12:04:56.206Z,5.60
2018-11-25T12:06:59.683Z,5.70
2018-11-25T12:09:03.253Z,5.70
2018-11-25T12:11:07.073Z,5.70
2018-11-25T12:13:10.578Z,5.70
2018-11-25T12:15:20.035Z,5.70
2018-11-25T12:17:23.557Z,5.80
2018-11-25T12:19:27.106Z,5.80
2018-11-25T12:21:30.786Z,5.70
2018-11-25T12:23:34.414Z,5.80
2018-11-25T12:25:38.229Z,5.70
2018-11-25T12:27:41.481Z,5.80
2018-11-25T12:29:44.726Z,5.80
2018-11-25T12:31:49.145Z,5.90
2018-11-25T12:33:52.630Z,5.80
2018-11-25T12:35:56.409Z,5.90
2018-11-25T12:37:59.885Z,5.90
2018-11-25T12:40:03.692Z,5.90
2018-11-25T12:42:07.197Z,5.80
2018-11-25T12:44:10.925Z,5.90
2018-11-25T12:46:14.471Z,5.90
2018-11-25T12:48:17.967Z,5.90
2018-11-25T12:50:23.716Z,5.80
2018-11-25T12:52:27.190Z,5.80
2018-11-25T12:54:30.685Z,5.90
2018-11-25T12:56:34.269Z,5.80
2018-11-25T12:58:37.741Z,5.80
2018-11-25T13:00:42.349Z,5.80
2018-11-25T13:02:46.154Z,5.80
2018-11-25T13:04:49.621Z,5.80
2018-11-25T13:06:53.099Z,5.80
2018-11-25T13:08:56.287Z,5.70
2018-11-25T13:10:59.496Z,5.70
2018-11-25T13:13:03.214Z,5.80
2018-11-25T13:15:07.645Z,5.80
2018-11-25T13:17:11.341Z,5.80
2018-11-25T13:19:14.861Z,5.80
2018-11-25T13:21:18.357Z,5.80
2018-11-25T13:23:21.891Z,5.80
2018-11-25T13:25:25.139Z,5.90
2018-11-25T13:27:28.658Z,5.90
2018-11-25T13:29:32.179Z,5.80
2018-11-25T13:31:35.405Z,5.80
2018-11-25T13:33:38.948Z,5.80
2018-11-25T13:35:42.839Z,5.80
2018-11-25T13:37:46.362Z,5.90
2018-11-25T13:39:49.956Z,5.80
2018-11-25T13:41:53.813Z,5.80
2018-11-25T13:43:57.165Z,5.80
2018-11-25T13:46:00.720Z,5.90
2018-11-25T13:48:03.956Z,5.90
2018-11-25T13:50:09.190Z,5.80
2018-11-25T13:52:12.441Z,5.80
2018-11-25T13:54:15.965Z,5.80
2018-11-25T13:56:19.784Z,5.80
2018-11-25T13:58:23.518Z,5.90
2018-11-25T14:00:31.962Z,5.80
2018-11-25T14:02:35.342Z,5.90
2018-11-25T14:04:39.378Z,5.90
2018-11-25T14:06:43.224Z,5.80
2018-11-25T14:08:49.357Z,5.80
2018-11-25T14:11:01.970Z,5.90
2018-11-25T14:13:06.015Z,5.90
2018-11-25T14:15:10.609Z,5.90
2018-11-25T14:17:14.397Z,5.90
2018-11-25T14:19:18.008Z,5.90
2018-11-25T14:21:21.541Z,5.90
2018-11-25T14:23:25.325Z,5.90
2018-11-25T14:25:28.812Z,5.90
2018-11-25T14:27:32.417Z,5.90
2018-11-25T14:29:36.050Z,6.00
2018-11-25T14:31:39.566Z,6.10
2018-11-25T14:33:43.119Z,6.10
2018-11-25T14:35:46.771Z,6.20
2018-11-25T14:37:50.171Z,6.20
2018-11-25T14:39:53.370Z,6.20
2018-11-25T14:41:56.766Z,6.30
2018-11-25T14:44:00.350Z,6.20
2018-11-25T14:46:04.003Z,6.30
2018-11-25T14:48:08.029Z,6.30
2018-11-25T14:50:13.917Z,6.20
2018-11-25T14:52:17.313Z,6.20
2018-11-25T14:54:20.819Z,6.10
2018-11-25T14:56:24.329Z,5.90
2018-11-25T14:58:27.929Z,5.80
2018-11-25T15:00:31.645Z,5.70
2018-11-25T15:02:35.121Z,5.60
2018-11-25T15:04:38.353Z,5.50
2018-11-25T15:06:41.710Z,5.40
2018-11-25T15:08:45.485Z,5.40
2018-11-25T15:10:49.708Z,5.30
2018-11-25T15:12:54.001Z,5.30
2018-11-25T15:14:57.801Z,5.30
2018-11-25T15:17:01.092Z,5.10
2018-11-25T15:19:05.046Z,5.10
2018-11-25T15:21:09.705Z,5.10
2018-11-25T15:23:14.284Z,5.00
2018-11-25T15:25:21.767Z,5.00
2018-11-25T15:27:25.225Z,5.00
2018-11-25T15:29:29.149Z,4.90
2018-11-25T15:31:32.422Z,4.90
2018-11-25T15:33:36.596Z,4.90
2018-11-25T15:35:40.960Z,4.80
2018-11-25T15:37:46.056Z,4.80
2018-11-25T15:39:49.540Z,4.80
2018-11-25T15:41:52.805Z,4.80
2018-11-25T15:43:56.421Z,4.70
2018-11-25T15:45:59.941Z,4.70
2018-11-25T15:48:27.761Z,4.70
2018-11-25T15:50:31.708Z,4.80
2018-11-25T15:52:39.559Z,4.70
2018-11-25T15:54:43.066Z,4.70
2018-11-25T15:56:46.429Z,4.70
2018-11-25T15:58:50.355Z,4.70
2018-11-25T16:00:54.009Z,4.60
2018-11-25T16:02:57.592Z,4.60
2018-11-25T16:05:01.287Z,4.60
2018-11-25T16:07:04.640Z,4.50
2018-11-25T16:09:09.151Z,4.50
2018-11-25T16:11:12.710Z,4.50
2018-11-25T16:13:16.708Z,4.50
2018-11-25T16:15:21.921Z,4.50
2018-11-25T16:17:25.449Z,4.40
2018-11-25T16:19:28.977Z,4.30
2018-11-25T16:21:33.245Z,4.30
2018-11-25T16:23:37.316Z,4.20
2018-11-25T16:25:44.473Z,4.10
2018-11-25T16:27:49.093Z,4.10
2018-11-25T16:29:52.559Z,4.00
2018-11-25T16:31:56.486Z,4.00
2018-11-25T16:34:00.112Z,4.00
2018-11-25T16:36:03.515Z,3.90
2018-11-25T16:38:07.925Z,3.90
2018-11-25T16:40:13.831Z,3.90
2018-11-25T16:42:17.957Z,3.90
2018-11-25T16:44:21.438Z,3.90
2018-11-25T16:46:24.905Z,3.90
2018-11-25T16:48:28.858Z,3.80
2018-11-25T16:50:32.540Z,3.80
2018-11-25T16:52:36.096Z,3.70
2018-11-25T16:54:39.605Z,3.70
2018-11-25T16:56:42.813Z,3.70
2018-11-25T16:58:46.307Z,3.70
2018-11-25T17:00:50.811Z,3.60
2018-11-25T17:02:54.326Z,3.60
2018-11-25T17:04:58.477Z,3.50
2018-11-25T17:07:02.011Z,3.50
2018-11-25T17:09:10.027Z,3.50
2018-11-25T17:11:13.560Z,3.50
2018-11-25T17:13:17.196Z,3.60
2018-11-25T17:15:23.806Z,3.60
2018-11-25T17:17:27.294Z,3.50
2018-11-25T17:19:31.246Z,3.50
2018-11-25T17:21:34.554Z,3.50
2018-11-25T17:23:38.144Z,3.50
2018-11-25T17:25:41.722Z,3.50
2018-11-25T17:27:45.449Z,3.50
2018-11-25T17:29:49.129Z,3.50
2018-11-25T17:31:52.638Z,3.50
2018-11-25T17:33:56.495Z,3.40
2018-11-25T17:36:00.656Z,3.30
2018-11-25T17:38:04.347Z,3.30
2018-11-25T17:40:08.995Z,3.30
2018-11-25T17:42:13.813Z,3.30
2018-11-25T17:44:17.354Z,3.30
2018-11-25T17:46:20.883Z,3.30
2018-11-25T17:48:24.131Z,3.30
2018-11-25T17:50:29.926Z,3.20
2018-11-25T17:52:33.469Z,3.20
2018-11-25T17:54:36.992Z,3.00
2018-11-25T17:56:40.433Z,3.00
2018-11-25T17:58:44.256Z,3.00
2018-11-25T18:00:54.911Z,3.00
2018-11-25T18:02:58.786Z,3.00
2018-11-25T18:05:02.315Z,3.10
2018-11-25T18:07:05.870Z,3.20
2018-11-25T18:09:11.105Z,3.20
2018-11-25T18:11:15.056Z,3.20
2018-11-25T18:13:20.228Z,3.20
2018-11-25T18:15:24.145Z,3.20
2018-11-25T18:17:27.664Z,3.30
2018-11-25T18:19:30.924Z,3.30
2018-11-25T18:21:34.596Z,3.30
2018-11-25T18:23:38.149Z,3.30
2018-11-25T18:25:41.689Z,3.20
2018-11-25T18:27:45.244Z,3.20
2018-11-25T18:29:48.866Z,3.20
2018-11-25T18:31:52.096Z,3.30
2018-11-25T18:33:55.621Z,3.30
2018-11-25T18:35:59.550Z,3.30
2018-11-25T18:38:03.253Z,3.30
2018-11-25T18:40:09.281Z,3.30
2018-11-25T18:42:13.210Z,3.30
2018-11-25T18:44:17.322Z,3.30
2018-11-25T18:46:21.050Z,3.30
2018-11-25T18:48:25.218Z,3.20
2018-11-25T18:50:29.612Z,3.20
2018-11-25T18:52:33.318Z,3.20
2018-11-25T18:54:46.422Z,3.20
2018-11-25T18:56:49.853Z,3.30
2018-11-25T18:58:53.726Z,3.30
2018-11-25T19:01:07.397Z,3.30
2018-11-25T19:03:11.023Z,3.40
2018-11-25T19:05:14.970Z,3.40
2018-11-25T19:07:19.316Z,3.40
2018-11-25T19:09:23.174Z,3.40
2018-11-25T19:11:26.771Z,3.40
2018-11-25T19:13:30.077Z,3.50
2018-11-25T19:15:33.601Z,3.50
2018-11-25T19:17:37.117Z,3.50
2018-11-25T19:19:40.398Z,3.40
2018-11-25T19:21:43.950Z,3.50
2018-11-25T19:23:47.514Z,3.50
2018-11-25T19:25:51.158Z,3.50
2018-11-25T19:27:55.298Z,3.40
2018-11-25T19:29:59.257Z,3.50
2018-11-25T19:32:02.571Z,3.50
2018-11-25T19:34:06.352Z,3.50
2018-11-25T19:36:09.742Z,3.50
2018-11-25T19:38:13.283Z,3.60
2018-11-25T19:40:19.360Z,3.50
2018-11-25T19:42:22.982Z,3.50
2018-11-25T19:44:26.518Z,3.50
2018-11-25T19:46:30.020Z,3.60
2018-11-25T19:48:33.800Z,3.60
2018-11-25T19:50:38.242Z,3.60
2018-11-25T19:52:42.074Z,3.50
2018-11-25T19:54:52.463Z,3.50
2018-11-25T19:56:56.290Z,3.60
2018-11-25T19:58:59.933Z,3.60
2018-11-25T20:01:03.477Z,3.60
2018-11-25T20:03:07.591Z,3.60
2018-11-25T20:05:12.215Z,3.60
2018-11-25T20:07:15.705Z,3.60
2018-11-25T20:09:19.272Z,3.60
2018-11-25T20:11:23.377Z,3.60
2018-11-25T20:13:27.265Z,3.70
2018-11-25T20:15:31.025Z,3.70
2018-11-25T20:17:34.797Z,3.70
2018-11-25T20:19:38.072Z,3.70
2018-11-25T20:22:49.870Z,3.80
2018-11-25T20:24:53.593Z,3.70
2018-11-25T20:27:02.591Z,3.80
2018-11-25T20:29:06.544Z,3.90
2018-11-25T20:31:10.835Z,3.90
2018-11-25T20:33:20.254Z,3.90
2018-11-25T20:35:24.419Z,3.80
2018-11-25T20:37:28.301Z,3.80
2018-11-25T20:39:34.445Z,3.90
2018-11-25T20:41:38.057Z,3.80
2018-11-25T20:43:41.568Z,3.90
2018-11-25T20:45:50.718Z,3.90
2018-11-25T20:47:55.101Z,3.90
2018-11-25T20:49:59.000Z,3.90
2018-11-25T20:52:08.379Z,3.90
2018-11-25T20:54:11.985Z,3.90
2018-11-25T20:56:15.561Z,3.90
2018-11-25T20:58:19.121Z,3.90
2018-11-25T21:00:24.995Z,3.90
2018-11-25T21:02:29.481Z,3.90
2018-11-25T21:04:32.558Z,3.80
2018-11-25T21:06:36.063Z,3.80
2018-11-25T21:08:39.729Z,3.80
2018-11-25T21:10:43.149Z,3.80
2018-11-25T21:12:49.295Z,3.70
2018-11-25T21:14:52.733Z,3.70
2018-11-25T21:16:56.310Z,3.70
2018-11-25T21:18:59.919Z,3.70
2018-11-25T21:21:03.752Z,3.60
2018-11-25T21:23:07.678Z,3.60
2018-11-25T21:25:15.255Z,3.60
2018-11-25T21:27:18.800Z,3.60
2018-11-25T21:29:22.677Z,3.60
2018-11-25T21:31:26.468Z,3.60
2018-11-25T21:33:30.350Z,3.50
2018-11-25T21:35:33.804Z,3.60
2018-11-25T21:37:37.611Z,3.60
2018-11-25T21:39:41.164Z,3.50
2018-11-25T21:41:44.503Z,3.50
2018-11-25T21:43:48.374Z,3.40
2018-11-25T21:45:52.083Z,3.40
2018-11-25T21:47:55.862Z,3.40
2018-11-25T21:49:59.354Z,3.30
2018-11-25T21:52:03.272Z,3.40
2018-11-25T21:54:06.805Z,3.30
2018-11-25T21:56:14.319Z,3.30
2018-11-25T21:58:13.923Z,3.20
2018-11-25T22:00:19.753Z,3.20
2018-11-25T22:02:23.302Z,3.10
2018-11-25T22:04:26.822Z,3.20
2018-11-25T22:06:29.997Z,3.20
2018-11-25T22:08:33.765Z,3.10
2018-11-25T22:10:37.608Z,3.20
2018-11-25T22:12:42.064Z,3.20
2018-11-25T22:14:46.010Z,3.20
2018-11-25T22:16:49.592Z,3.30
2018-11-25T22:18:53.117Z,3.30
2018-11-25T22:20:56.673Z,3.30
2018-11-25T22:23:00.117Z,3.30
2018-11-25T22:25:04.349Z,3.40
2018-11-25T22:27:08.106Z,3.40
2018-11-25T22:29:11.685Z,3.40
2018-11-25T22:31:15.202Z,3.40
2018-11-25T22:33:19.036Z,3.30
2018-11-25T22:35:23.185Z,3.30
2018-11-25T22:37:27.333Z,3.20
2018-11-25T22:39:31.054Z,3.30
2018-11-25T22:41:34.264Z,3.30
2018-11-25T22:43:37.523Z,3.30
2018-11-25T22:45:41.249Z,3.40
2018-11-25T22:47:44.480Z,3.30
2018-11-25T22:49:47.994Z,3.30
2018-11-25T22:51:51.714Z,3.20
2018-11-25T22:53:55.288Z,3.20
2018-11-25T22:55:58.692Z,3.10
2018-11-25T22:58:02.437Z,3.20
2018-11-25T23:00:16.808Z,3.20
2018-11-25T23:02:20.702Z,3.20
2018-11-25T23:04:35.605Z,3.20
2018-11-25T23:06:50.454Z,3.10
2018-11-25T23:08:53.849Z,3.20
2018-11-25T23:10:57.362Z,3.20
2018-11-25T23:13:01.168Z,3.30
2018-11-25T23:15:04.654Z,3.30
2018-11-25T23:17:07.837Z,3.40
2018-11-25T23:19:11.063Z,3.40
2018-11-25T23:21:14.730Z,3.40
2018-11-25T23:23:17.961Z,3.50
2018-11-25T23:25:21.581Z,3.50
2018-11-25T23:27:25.081Z,3.50
2018-11-25T23:29:28.566Z,3.60
2018-11-25T23:31:32.221Z,3.60
2018-11-25T23:33:36.080Z,3.60
2018-11-25T23:35:40.201Z,3.70
2018-11-25T23:37:43.791Z,3.70
2018-11-25T23:39:47.909Z,3.70
2018-11-25T23:41:51.440Z,3.70
2018-11-25T23:43:55.245Z,3.70
2018-11-25T23:45:58.801Z,3.60
2018-11-25T23:48:02.486Z,3.60
2018-11-25T23:50:07.633Z,3.50
2018-11-25T23:52:11.026Z,3.50
2018-11-25T23:54:14.900Z,3.50
2018-11-25T23:56:18.424Z,3.50
2018-11-25T23:58:22.342Z,3.50
